Time;durP1;ratioP1;P1;durP2;ratioP2;P2;SDS_P1;SDS_P2;PMS_P1;PMS_P2;Temp;Humidity;BMP_temperature;BMP_pressure;BME280_temperature;BME280_humidity;BME280_pressure;Samples;Min_cycle;Max_cycle;Signal;HPM_P1;HPM_P2
2023/08/16 00:02:11;;;;;;;5.00;4.60;;;;;;;22.89;82.20;100727.31;5044575;28;20043;-71
2023/08/16 00:04:36;;;;;;;5.45;4.95;;;;;;;22.83;82.31;100729.81;5052281;28;20433;-71
2023/08/16 00:07:02;;;;;;;5.55;5.10;;;;;;;22.84;81.76;100728.78;5044336;28;20036;-71
2023/08/16 00:09:28;;;;;;;5.05;4.65;;;;;;;22.79;82.05;100730.47;5049386;28;20086;-71
2023/08/16 00:11:54;;;;;;;6.13;5.25;;;;;;;22.72;82.48;100730.50;5044298;28;20037;-72
2023/08/16 00:14:19;;;;;;;4.60;4.22;;;;;;;22.69;82.58;100738.88;5045146;28;20251;-71
2023/08/16 00:16:45;;;;;;;6.05;5.50;;;;;;;22.60;83.08;100740.22;5043359;28;20033;-71
2023/08/16 00:19:10;;;;;;;5.57;4.95;;;;;;;22.63;83.11;100738.97;5047343;28;20071;-71
2023/08/16 00:21:36;;;;;;;5.45;4.72;;;;;;;22.72;82.03;100734.97;5046851;28;20036;-71
2023/08/16 00:24:04;;;;;;;5.68;5.18;;;;;;;22.78;81.20;100742.94;5047657;28;21270;-71
2023/08/16 00:26:30;;;;;;;5.30;4.40;;;;;;;22.89;80.52;100741.41;5046919;28;20024;-71
2023/08/16 00:28:55;;;;;;;5.15;4.65;;;;;;;22.91;80.13;100743.84;5043140;28;20363;-70
2023/08/16 00:31:22;;;;;;;5.15;4.40;;;;;;;22.96;80.03;100747.47;5039926;28;20480;-71
2023/08/16 00:33:47;;;;;;;6.30;4.70;;;;;;;23.04;79.62;100738.41;5044907;28;20484;-70
2023/08/16 00:36:13;;;;;;;4.43;4.03;;;;;;;23.02;80.02;100741.28;5047003;28;20048;-71
2023/08/16 00:38:42;;;;;;;6.50;4.63;;;;;;;23.04;79.46;100747.19;5050039;28;20119;-70
2023/08/16 00:41:09;;;;;;;5.10;4.65;;;;;;;23.07;79.47;100744.09;5055773;28;20029;-71
2023/08/16 00:43:35;;;;;;;5.95;4.28;;;;;;;23.10;79.35;100751.66;5044977;28;20044;-71
2023/08/16 00:46:01;;;;;;;6.28;5.10;;;;;;;23.11;79.35;100745.28;5048055;28;20024;-71
2023/08/16 00:48:30;;;;;;;5.30;4.72;;;;;;;23.10;79.65;100743.66;5052076;28;20025;-71
2023/08/16 00:50:56;;;;;;;5.68;4.75;;;;;;;23.05;80.75;100748.00;5049385;28;20040;-71
2023/08/16 00:53:22;;;;;;;6.10;4.60;;;;;;;22.92;81.41;100748.94;5049018;28;20033;-71
2023/08/16 00:55:48;;;;;;;5.03;4.63;;;;;;;22.93;80.67;100747.91;5044359;28;20048;-71
2023/08/16 00:58:14;;;;;;;6.53;4.53;;;;;;;22.96;80.18;100749.31;5046265;28;20036;-71
2023/08/16 01:00:40;;;;;;;6.47;5.10;;;;;;;22.94;80.56;100740.75;5049611;28;20156;-71
2023/08/16 01:03:05;;;;;;;5.70;5.20;;;;;;;22.91;80.44;100743.84;5049317;28;20261;-70
2023/08/16 01:05:32;;;;;;;6.18;4.82;;;;;;;22.81;81.33;100742.50;5045271;28;20029;-71
2023/08/16 01:07:57;;;;;;;4.88;4.47;;;;;;;22.74;81.41;100740.91;5053740;28;20029;-71
2023/08/16 01:10:35;;;;;;;5.63;5.07;;;;;;;22.77;81.26;100743.13;5043363;28;22382;-71
2023/08/16 01:13:10;;;;;;;5.20;4.68;;;;;;;22.74;81.55;100739.06;5043611;28;20040;-70
2023/08/16 01:15:40;;;;;;;4.93;4.53;;;;;;;22.72;81.59;100743.75;5043508;28;20029;-70
2023/08/16 01:18:06;;;;;;;5.30;4.80;;;;;;;22.69;81.73;100733.56;5046911;28;20025;-70
2023/08/16 01:20:32;;;;;;;5.43;4.53;;;;;;;22.67;81.31;100738.31;5044183;28;20378;-70
2023/08/16 01:23:04;;;;;;;4.97;4.53;;;;;;;22.78;80.86;100737.63;5039435;28;20079;-70
2023/08/16 01:25:42;;;;;;;5.95;4.45;;;;;;;22.89;79.97;100738.75;5040073;28;20029;-71
2023/08/16 01:28:09;;;;;;;7.60;5.00;;;;;;;22.89;79.90;100745.91;5044815;28;20030;-71
2023/08/16 01:30:35;;;;;;;5.15;4.70;;;;;;;22.80;80.21;100743.53;5040308;28;20033;-71
2023/08/16 01:33:07;;;;;;;4.97;4.57;;;;;;;22.70;81.03;100743.16;5042893;28;20029;-71
2023/08/16 01:35:34;;;;;;;7.82;4.72;;;;;;;22.67;81.90;100746.28;5048004;28;20152;-71
2023/08/16 01:38:00;;;;;;;5.78;4.40;;;;;;;22.50;82.83;100742.53;5047015;28;20025;-71
2023/08/16 01:40:30;;;;;;;5.50;5.00;;;;;;;22.40;83.12;100747.50;5044190;28;20036;-71
2023/08/16 01:42:56;;;;;;;5.47;4.80;;;;;;;22.31;83.76;100740.81;5044156;28;20052;-71
2023/08/16 01:45:23;;;;;;;6.38;5.45;;;;;;;22.20;84.62;100746.84;5045963;28;20021;-70
2023/08/16 01:47:49;;;;;;;10.95;5.18;;;;;;;22.12;84.86;100746.06;5044393;28;20029;-71
2023/08/16 01:50:15;;;;;;;7.13;5.53;;;;;;;22.08;84.97;100744.88;5051583;28;20029;-71
2023/08/16 01:52:41;;;;;;;6.97;5.10;;;;;;;22.05;84.88;100749.78;5037345;28;20104;-71
2023/08/16 01:55:07;;;;;;;8.23;5.47;;;;;;;22.03;85.15;100750.00;5041557;28;20116;-72
2023/08/16 01:57:33;;;;;;;5.90;5.25;;;;;;;22.03;85.56;100746.53;5041900;28;20028;-72
2023/08/16 01:59:58;;;;;;;6.07;5.40;;;;;;;22.08;85.83;100750.16;5048196;28;20040;-71
2023/08/16 02:02:24;;;;;;;6.00;5.50;;;;;;;22.00;86.34;100753.03;5047190;28;20404;-71
2023/08/16 02:04:50;;;;;;;5.57;5.05;;;;;;;21.95;86.92;100750.19;5050021;28;20075;-71
2023/08/16 02:07:15;;;;;;;12.15;5.50;;;;;;;21.97;87.08;100753.47;5047360;28;20112;-71
2023/08/16 02:09:40;;;;;;;6.03;5.43;;;;;;;21.95;87.54;100758.16;5049589;28;20029;-71
2023/08/16 02:12:07;;;;;;;5.30;4.93;;;;;;;21.85;88.83;100761.25;5047854;28;20037;-71
2023/08/16 02:14:32;;;;;;;5.75;5.25;;;;;;;21.76;89.55;100751.09;5044617;28;20041;-71
2023/08/16 02:16:58;;;;;;;9.70;5.82;;;;;;;21.71;89.60;100750.94;5037061;28;20029;-71
2023/08/16 02:19:23;;;;;;;8.68;5.90;;;;;;;21.80;88.46;100752.31;5046441;28;20087;-71
2023/08/16 02:21:48;;;;;;;7.40;5.90;;;;;;;21.82;88.35;100750.25;5040159;28;20145;-71
2023/08/16 02:24:14;;;;;;;7.18;6.38;;;;;;;21.75;89.17;100747.63;5039923;28;20052;-71
2023/08/16 02:26:39;;;;;;;6.85;6.15;;;;;;;21.68;89.47;100746.06;5043255;28;20029;-71
2023/08/16 02:29:05;;;;;;;7.97;5.68;;;;;;;21.61;90.00;100746.09;5045871;28;20041;-71
2023/08/16 02:31:30;;;;;;;5.95;5.45;;;;;;;21.53;90.54;100741.81;5046473;28;20033;-71
2023/08/16 02:33:57;;;;;;;6.28;5.68;;;;;;;21.45;91.17;100743.88;5041579;28;20044;-71
2023/08/16 02:36:22;;;;;;;6.32;5.47;;;;;;;21.40;91.13;100736.56;5049752;28;20040;-71
2023/08/16 02:38:48;;;;;;;6.63;5.72;;;;;;;21.42;91.64;100736.34;5045767;28;20033;-71
2023/08/16 02:41:13;;;;;;;6.80;6.10;;;;;;;21.41;92.09;100737.38;5045984;28;20029;-71
2023/08/16 02:43:38;;;;;;;7.43;6.05;;;;;;;21.33;92.87;100733.09;5051679;28;20037;-71
2023/08/16 02:46:04;;;;;;;6.05;5.43;;;;;;;21.20;92.99;100726.00;5050190;28;20031;-71
2023/08/16 02:48:29;;;;;;;6.43;5.28;;;;;;;21.43;91.50;100725.53;5050992;28;20088;-71
2023/08/16 02:50:55;;;;;;;7.47;6.68;;;;;;;21.41;91.53;100718.81;5044982;28;20041;-70
2023/08/16 02:53:20;;;;;;;6.78;5.45;;;;;;;21.49;90.37;100715.94;5047020;28;20032;-71
2023/08/16 02:55:46;;;;;;;8.63;5.63;;;;;;;21.66;89.32;100713.63;5044291;28;20045;-70
2023/08/16 02:58:11;;;;;;;6.13;5.57;;;;;;;21.72;88.80;100712.78;5049361;28;20037;-70
2023/08/16 03:00:38;;;;;;;6.93;5.63;;;;;;;21.78;88.03;100711.91;5046761;28;20033;-71
2023/08/16 03:03:04;;;;;;;6.45;5.82;;;;;;;21.72;88.66;100712.78;5051507;28;20020;-70
2023/08/16 03:05:29;;;;;;;8.55;6.00;;;;;;;21.61;89.29;100710.81;5051761;28;20040;-71
2023/08/16 03:07:54;;;;;;;5.78;4.95;;;;;;;21.61;89.60;100708.16;5040171;28;20110;-72
2023/08/16 03:10:20;;;;;;;6.05;5.55;;;;;;;21.56;90.38;100708.78;5046328;28;20492;-71
2023/08/16 03:12:45;;;;;;;7.38;5.40;;;;;;;21.46;91.16;100713.72;5045305;28;20473;-71
2023/08/16 03:15:11;;;;;;;7.72;6.10;;;;;;;21.42;92.28;100712.50;5046044;28;20483;-71
2023/08/16 03:17:37;;;;;;;7.38;6.00;;;;;;;21.36;91.68;100718.63;5045589;28;20043;-71
2023/08/16 03:20:03;;;;;;;8.60;6.45;;;;;;;21.35;91.29;100717.81;5046592;28;20057;-71
2023/08/16 03:22:29;;;;;;;6.60;6.00;;;;;;;21.32;91.53;100710.28;5045376;28;20032;-70
2023/08/16 03:24:54;;;;;;;5.88;5.28;;;;;;;21.33;91.49;100701.31;5047024;28;20032;-71
2023/08/16 03:27:19;;;;;;;6.45;5.80;;;;;;;21.36;91.67;100705.38;5051298;28;20033;-71
2023/08/16 03:29:45;;;;;;;6.82;5.82;;;;;;;21.37;91.61;100704.34;5049231;28;20029;-71
2023/08/16 03:32:10;;;;;;;8.40;6.68;;;;;;;21.32;91.75;100710.28;5042834;28;20031;-71
2023/08/16 03:34:36;;;;;;;5.80;5.30;;;;;;;21.26;92.32;100710.31;5050961;28;20045;-71
2023/08/16 03:37:01;;;;;;;6.78;5.80;;;;;;;21.14;93.38;100715.41;5043987;28;20028;-71
2023/08/16 03:39:26;;;;;;;5.88;5.40;;;;;;;21.04;94.01;100713.19;5042214;28;20060;-71
2023/08/16 03:41:52;;;;;;;8.55;6.15;;;;;;;21.05;93.42;100711.34;5048743;28;20378;-71
2023/08/16 03:44:17;;;;;;;5.75;4.82;;;;;;;21.14;92.26;100704.81;5050073;28;20043;-71
2023/08/16 03:46:43;;;;;;;7.25;4.90;;;;;;;21.35;90.05;100707.22;5042582;28;20037;-71
2023/08/16 03:49:08;;;;;;;5.15;4.63;;;;;;;21.63;88.27;100708.75;5047676;28;20029;-71
2023/08/16 03:51:34;;;;;;;5.38;4.88;;;;;;;21.78;86.72;100712.72;5049265;28;20416;-70
2023/08/16 03:54:00;;;;;;;6.90;4.20;;;;;;;21.83;86.46;100712.09;5043997;28;20111;-70
2023/08/16 03:56:25;;;;;;;7.32;4.88;;;;;;;21.87;86.09;100715.97;5046985;28;20125;-71
2023/08/16 03:58:50;;;;;;;5.40;4.90;;;;;;;21.80;87.14;100710.69;5047697;28;20029;-71
2023/08/16 04:01:16;;;;;;;4.90;4.50;;;;;;;21.70;88.16;100714.84;5051007;28;20048;-71
2023/08/16 04:03:43;;;;;;;5.95;4.88;;;;;;;21.56;89.67;100724.69;5048802;28;20037;-71
2023/08/16 04:06:11;;;;;;;6.63;5.75;;;;;;;21.43;91.19;100714.94;5049527;28;20029;-71
2023/08/16 04:08:41;;;;;;;7.70;5.28;;;;;;;21.23;91.80;100722.16;5043469;28;20037;-71
2023/08/16 04:11:06;;;;;;;8.63;5.82;;;;;;;21.19;92.71;100719.06;5047739;28;20475;-71
2023/08/16 04:13:33;;;;;;;5.97;5.47;;;;;;;21.17;92.80;100720.31;5047834;28;20111;-73
2023/08/16 04:15:58;;;;;;;10.27;5.53;;;;;;;21.15;93.37;100722.34;5046530;28;20057;-72
2023/08/16 04:18:25;;;;;;;5.88;5.28;;;;;;;21.10;93.76;100724.78;5048381;28;20128;-72
2023/08/16 04:20:50;;;;;;;6.20;5.65;;;;;;;21.04;94.47;100725.63;5041202;28;20055;-72
2023/08/16 04:23:16;;;;;;;6.40;5.40;;;;;;;20.97;95.40;100730.13;5046542;28;20025;-72
2023/08/16 04:25:41;;;;;;;6.65;6.05;;;;;;;20.91;95.68;100730.94;5044811;28;20025;-72
2023/08/16 04:28:07;;;;;;;8.95;6.22;;;;;;;20.82;96.13;100725.84;5046722;28;20033;-72
2023/08/16 04:30:33;;;;;;;7.25;6.00;;;;;;;20.81;97.03;100728.69;5043660;28;20028;-71
2023/08/16 04:32:58;;;;;;;6.90;6.07;;;;;;;20.77;97.40;100730.16;5043723;28;20051;-72
2023/08/16 04:35:23;;;;;;;7.20;5.95;;;;;;;20.79;97.56;100734.22;5043239;28;20084;-72
2023/08/16 04:37:49;;;;;;;9.65;6.13;;;;;;;20.81;97.71;100739.28;5041396;28;20522;-72
2023/08/16 04:40:14;;;;;;;7.10;6.38;;;;;;;20.81;97.65;100734.00;5049496;28;20137;-72
2023/08/16 04:42:40;;;;;;;6.50;5.72;;;;;;;20.88;96.99;100738.25;5048959;28;20184;-73
2023/08/16 04:45:06;;;;;;;5.65;5.15;;;;;;;21.06;95.06;100744.78;5044744;28;20381;-73
2023/08/16 04:47:31;;;;;;;6.25;5.25;;;;;;;21.20;93.51;100756.97;5051908;28;20062;-72
2023/08/16 04:49:58;;;;;;;7.40;6.13;;;;;;;21.26;93.28;100750.06;5048012;28;20032;-73
2023/08/16 04:52:24;;;;;;;6.38;5.18;;;;;;;21.30;92.66;100757.38;5041088;28;20036;-72
2023/08/16 04:54:49;;;;;;;6.18;4.93;;;;;;;21.37;92.63;100755.53;5048605;28;20055;-73
2023/08/16 04:57:15;;;;;;;9.27;5.75;;;;;;;21.39;93.82;100758.78;5044424;28;20021;-73
2023/08/16 04:59:40;;;;;;;7.20;5.70;;;;;;;21.40;92.89;100768.38;5042588;28;20121;-73
2023/08/16 05:02:06;;;;;;;7.60;5.03;;;;;;;21.61;91.17;100758.53;5040430;28;20396;-74
2023/08/16 05:04:31;;;;;;;6.25;5.32;;;;;;;21.75;89.38;100760.88;5045519;28;20041;-76
2023/08/16 05:06:57;;;;;;;5.57;4.75;;;;;;;21.83;88.91;100754.53;5041921;28;20082;-76
2023/08/16 05:09:22;;;;;;;8.85;5.25;;;;;;;21.93;88.38;100768.16;5041672;28;20032;-71
2023/08/16 05:11:48;;;;;;;7.28;5.72;;;;;;;21.98;88.40;100770.19;5042456;28;20044;-71
2023/08/16 05:14:14;;;;;;;6.57;5.97;;;;;;;22.03;88.26;100765.91;5047204;28;20155;-71
2023/08/16 05:16:39;;;;;;;7.03;5.93;;;;;;;22.08;88.07;100771.41;5047097;28;20028;-71
2023/08/16 05:19:05;;;;;;;5.32;4.88;;;;;;;22.16;87.47;100781.75;5035820;28;20049;-70
2023/08/16 05:21:30;;;;;;;5.35;4.85;;;;;;;22.26;86.85;100777.81;5047030;28;20511;-71
2023/08/16 05:23:55;;;;;;;6.22;5.68;;;;;;;22.36;86.06;100772.84;5046522;28;20029;-71
2023/08/16 05:26:21;;;;;;;5.70;5.03;;;;;;;22.42;85.61;100780.78;5046832;28;20024;-70
2023/08/16 05:28:46;;;;;;;6.25;5.35;;;;;;;22.51;85.23;100778.69;5043276;28;20091;-71
2023/08/16 05:31:13;;;;;;;6.35;5.50;;;;;;;22.57;85.15;100772.50;5036855;28;20035;-70
2023/08/16 05:33:39;;;;;;;7.57;5.57;;;;;;;22.61;84.92;100775.53;5043367;28;20116;-70
2023/08/16 05:36:05;;;;;;;7.53;4.95;;;;;;;22.66;84.61;100776.53;5046848;28;20132;-70
2023/08/16 05:38:31;;;;;;;5.35;4.70;;;;;;;22.78;84.17;100777.47;5042273;28;20029;-71
2023/08/16 05:40:58;;;;;;;5.30;4.65;;;;;;;22.88;83.52;100770.84;5043531;28;20116;-70
2023/08/16 05:43:23;;;;;;;6.65;5.35;;;;;;;22.99;83.42;100778.13;5040804;28;20060;-71
2023/08/16 05:45:50;;;;;;;10.48;4.60;;;;;;;23.12;82.34;100778.81;5040420;28;20052;-71
2023/08/16 05:48:15;;;;;;;6.82;5.68;;;;;;;23.24;82.06;100772.75;5043640;28;20063;-71
2023/08/16 05:50:41;;;;;;;7.07;4.97;;;;;;;23.41;81.90;100774.63;5043167;28;20033;-71
2023/08/16 05:53:07;;;;;;;4.95;4.47;;;;;;;23.48;81.32;100775.38;5042472;28;20106;-71
2023/08/16 05:55:33;;;;;;;7.28;5.05;;;;;;;23.56;81.40;100776.13;5043801;28;20633;-70
2023/08/16 05:57:58;;;;;;;4.55;4.15;;;;;;;23.57;80.45;100780.41;5047020;28;20396;-71
2023/08/16 06:00:24;;;;;;;9.23;3.85;;;;;;;23.68;79.14;100782.31;5041996;28;20048;-70
2023/08/16 06:02:49;;;;;;;4.00;3.65;;;;;;;23.75;78.18;100783.84;5046192;28;20053;-70
2023/08/16 06:05:15;;;;;;;5.18;4.55;;;;;;;23.69;78.37;100792.72;5047886;28;20040;-70
2023/08/16 06:07:40;;;;;;;6.28;4.93;;;;;;;23.58;79.17;100779.38;5045166;28;20041;-70
2023/08/16 06:10:06;;;;;;;5.53;4.75;;;;;;;23.51;79.83;100790.06;5047915;28;20106;-70
2023/08/16 06:12:32;;;;;;;14.18;5.53;;;;;;;23.48;79.50;100786.00;5053707;28;20130;-70
2023/08/16 06:14:58;;;;;;;6.05;4.60;;;;;;;23.49;80.12;100782.31;5047882;28;20032;-71
2023/08/16 06:17:23;;;;;;;7.32;5.13;;;;;;;23.53;80.49;100784.53;5044980;28;20021;-71
2023/08/16 06:19:49;;;;;;;8.60;5.90;;;;;;;23.57;81.88;100780.41;5050700;28;20110;-71
2023/08/16 06:22:14;;;;;;;8.38;6.30;;;;;;;23.65;82.87;100793.38;5047045;28;20053;-71
2023/08/16 06:24:40;;;;;;;8.15;4.63;;;;;;;23.58;82.94;100787.38;5048788;28;20133;-70
2023/08/16 06:27:08;;;;;;;6.68;5.40;;;;;;;23.71;82.81;100787.19;5044305;28;20033;-70
2023/08/16 06:29:34;;;;;;;6.93;4.90;;;;;;;23.67;82.81;100792.13;5044734;28;20069;-71
2023/08/16 06:32:00;;;;;;;6.32;5.30;;;;;;;23.58;82.81;100795.34;5048383;28;20466;-71
2023/08/16 06:34:26;;;;;;;7.60;4.80;;;;;;;23.55;83.13;100788.63;5042985;28;20045;-71
2023/08/16 06:36:52;;;;;;;7.55;4.90;;;;;;;23.61;83.02;100786.91;5046307;28;20044;-71
2023/08/16 06:39:18;;;;;;;9.38;5.15;;;;;;;23.70;82.55;100788.22;5046264;28;20024;-71
2023/08/16 06:41:44;;;;;;;5.15;4.75;;;;;;;23.86;82.65;100787.63;5049277;28;20036;-71
2023/08/16 06:44:09;;;;;;;6.90;4.50;;;;;;;24.04;82.67;100787.59;5041261;28;20465;-71
2023/08/16 06:46:35;;;;;;;4.75;4.35;;;;;;;24.14;82.79;100797.69;5044528;28;20035;-69
2023/08/16 06:49:00;;;;;;;4.85;4.43;;;;;;;24.16;82.77;100791.09;5045150;28;20036;-70
2023/08/16 06:51:26;;;;;;;5.63;4.00;;;;;;;24.32;81.59;100802.19;5040012;28;20035;-69
2023/08/16 06:53:52;;;;;;;4.63;4.22;;;;;;;24.50;80.01;100803.97;5047703;28;20116;-69
2023/08/16 06:56:17;;;;;;;4.82;4.30;;;;;;;24.67;79.86;100795.09;5045411;28;20026;-69
2023/08/16 06:58:42;;;;;;;8.70;4.18;;;;;;;24.90;79.25;100796.97;5044952;28;20033;-70
2023/08/16 07:01:09;;;;;;;5.82;4.47;;;;;;;25.12;78.55;100794.56;5044677;28;20033;-70
2023/08/16 07:03:35;;;;;;;5.90;3.70;;;;;;;25.33;78.38;100793.97;5041800;28;20033;-69
2023/08/16 07:06:01;;;;;;;8.02;4.93;;;;;;;25.53;77.43;100790.09;5047009;28;20128;-70
2023/08/16 07:08:26;;;;;;;5.07;4.03;;;;;;;25.63;77.27;100791.13;5044059;28;20175;-69
2023/08/16 07:10:52;;;;;;;6.53;3.90;;;;;;;25.77;77.19;100797.88;5036773;28;20033;-70
2023/08/16 07:13:18;;;;;;;4.45;4.05;;;;;;;26.01;75.58;100792.44;5044322;28;20384;-69
2023/08/16 07:15:43;;;;;;;4.60;3.90;;;;;;;26.19;74.53;100794.09;5040604;28;20026;-70
2023/08/16 07:18:08;;;;;;;9.35;4.85;;;;;;;26.28;75.09;100788.13;5045002;28;20029;-69
2023/08/16 07:20:34;;;;;;;7.55;3.25;;;;;;;26.35;72.73;100796.03;5045770;28;20061;-70
2023/08/16 07:23:00;;;;;;;3.97;3.38;;;;;;;26.36;71.99;100786.97;5038064;28;20044;-69
2023/08/16 07:25:28;;;;;;;3.53;3.20;;;;;;;26.30;70.33;100791.38;5046658;28;20063;-69
2023/08/16 07:27:54;;;;;;;4.53;3.65;;;;;;;26.27;69.79;100786.53;5044879;28;20438;-69
2023/08/16 07:30:19;;;;;;;4.10;3.08;;;;;;;26.22;69.63;100793.63;5052172;28;20038;-70
2023/08/16 07:32:45;;;;;;;5.05;3.00;;;;;;;26.09;70.46;100790.19;5035638;28;20044;-71
2023/08/16 07:35:11;;;;;;;3.53;2.97;;;;;;;26.03;71.27;100785.81;5048472;28;20053;-70
2023/08/16 07:37:37;;;;;;;5.93;3.00;;;;;;;26.30;70.49;100795.91;5045862;28;20069;-70
2023/08/16 07:40:04;;;;;;;4.85;2.83;;;;;;;26.62;69.28;100802.38;5044245;28;20033;-71
2023/08/16 07:42:30;;;;;;;4.07;2.63;;;;;;;26.89;68.08;100791.84;5042836;28;20041;-71
2023/08/16 07:44:57;;;;;;;3.33;2.90;;;;;;;27.08;66.98;100792.41;5044130;28;20029;-71
2023/08/16 07:47:22;;;;;;;4.97;3.42;;;;;;;27.09;65.86;100788.69;5038337;28;20116;-71
2023/08/16 07:49:48;;;;;;;3.85;3.20;;;;;;;27.15;65.88;100790.38;5037608;28;20187;-73
2023/08/16 07:52:13;;;;;;;3.20;2.90;;;;;;;27.26;65.63;100800.16;5032594;28;20128;-71
2023/08/16 07:54:39;;;;;;;4.18;2.92;;;;;;;27.43;65.06;100792.88;5037916;28;20025;-70
2023/08/16 07:57:04;;;;;;;3.70;3.35;;;;;;;27.57;64.64;100796.00;5045460;28;20033;-68
2023/08/16 07:59:30;;;;;;;5.20;3.17;;;;;;;27.62;65.26;100797.97;5046229;28;20035;-68
2023/08/16 08:01:56;;;;;;;4.15;2.80;;;;;;;27.71;64.95;100789.25;5044992;28;20119;-68
2023/08/16 08:04:22;;;;;;;4.25;2.95;;;;;;;27.79;64.01;100793.38;5047271;28;20034;-69
2023/08/16 08:06:48;;;;;;;3.47;3.10;;;;;;;27.94;63.88;100792.72;5036759;28;20034;-69
2023/08/16 08:09:13;;;;;;;7.40;4.25;;;;;;;28.12;64.95;100797.75;5037467;28;20118;-69
2023/08/16 08:11:39;;;;;;;12.50;4.18;;;;;;;28.17;64.76;100805.00;5052332;28;20036;-70
2023/08/16 08:14:04;;;;;;;3.78;2.53;;;;;;;28.12;62.94;100805.78;5046075;28;20048;-69
2023/08/16 08:16:30;;;;;;;5.00;2.45;;;;;;;28.28;62.46;100812.13;5045188;28;20032;-69
2023/08/16 08:18:56;;;;;;;4.60;2.85;;;;;;;28.38;62.76;100802.28;5045462;28;20025;-69
2023/08/16 08:21:21;;;;;;;4.75;3.13;;;;;;;28.35;62.69;100805.50;5041460;28;20121;-69
2023/08/16 08:23:47;;;;;;;4.05;2.88;;;;;;;28.38;61.94;100804.16;5044106;28;20037;-69
2023/08/16 08:26:13;;;;;;;5.22;3.33;;;;;;;28.45;61.09;100807.44;5046113;28;20025;-69
2023/08/16 08:28:38;;;;;;;3.53;3.00;;;;;;;28.44;61.91;100805.84;5045671;28;20548;-74
2023/08/16 08:31:04;;;;;;;6.93;3.10;;;;;;;28.53;62.64;100804.31;5044356;28;20465;-69
2023/08/16 08:33:30;;;;;;;3.40;2.70;;;;;;;28.59;62.65;100814.00;5042983;28;20033;-69
2023/08/16 08:35:56;;;;;;;3.95;2.85;;;;;;;28.43;61.47;100814.94;5037652;28;20511;-68
2023/08/16 08:38:23;;;;;;;3.47;3.25;;;;;;;28.57;62.15;100815.34;5043806;28;20026;-69
2023/08/16 08:41:01;;;;;;;7.32;3.33;;;;;;;28.51;61.26;100811.78;5041682;28;20102;-69
2023/08/16 08:43:33;;;;;;;3.33;3.03;;;;;;;28.40;60.21;100810.09;5036157;28;20029;-68
2023/08/16 08:46:00;;;;;;;3.38;3.08;;;;;;;28.46;61.73;100809.06;5039663;28;20021;-68
2023/08/16 08:48:27;;;;;;;5.40;2.90;;;;;;;28.53;62.24;100803.50;5043863;28;20029;-69
2023/08/16 08:50:56;;;;;;;4.35;3.00;;;;;;;28.47;61.87;100805.31;5040411;28;20034;-69
2023/08/16 08:53:23;;;;;;;4.95;2.78;;;;;;;28.47;61.11;100808.00;5043188;28;20041;-70
2023/08/16 08:55:52;;;;;;;4.13;2.83;;;;;;;28.57;60.35;100802.72;5040846;28;20447;-69
2023/08/16 08:58:18;;;;;;;3.00;2.72;;;;;;;28.64;59.73;100811.38;5040677;28;20557;-69
2023/08/16 09:00:44;;;;;;;5.95;3.50;;;;;;;28.59;60.22;100808.66;5042706;28;20028;-69
2023/08/16 09:03:12;;;;;;;55.55;8.68;;;;;;;28.67;61.41;100808.19;5038213;28;20032;-69
2023/08/16 09:05:39;;;;;;;12.52;3.60;;;;;;;28.60;61.78;100804.09;5039811;28;20091;-69
2023/08/16 09:08:06;;;;;;;7.40;3.90;;;;;;;28.67;62.07;100800.16;5043725;28;20032;-69
2023/08/16 09:10:37;;;;;;;7.93;3.42;;;;;;;28.71;62.38;100800.44;5034884;28;20323;-69
2023/08/16 09:13:10;;;;;;;4.97;3.53;;;;;;;28.65;63.63;100801.47;5040948;28;20085;-69
2023/08/16 09:15:36;;;;;;;4.43;3.00;;;;;;;28.68;62.11;100803.63;5038816;28;20033;-69
2023/08/16 09:18:21;;;;;;;4.32;2.65;;;;;;;28.72;59.04;100802.06;5038564;28;20044;-69
2023/08/16 09:20:49;;;;;;;5.47;3.65;;;;;;;28.62;61.26;100802.78;5036167;28;20041;-69
2023/08/16 09:23:17;;;;;;;3.63;2.80;;;;;;;28.54;62.17;100803.25;5048660;28;20119;-69
2023/08/16 09:25:44;;;;;;;3.95;3.40;;;;;;;28.51;63.10;100802.94;5043180;28;20114;-69
2023/08/16 09:28:11;;;;;;;3.50;2.97;;;;;;;28.56;62.01;100805.66;5035877;28;20037;-69
2023/08/16 09:30:37;;;;;;;4.20;2.90;;;;;;;28.49;62.05;100802.38;5036203;28;20032;-69
2023/08/16 09:33:03;;;;;;;4.30;3.15;;;;;;;28.41;62.10;100801.78;5035622;28;20029;-69
2023/08/16 09:35:44;;;;;;;3.75;3.45;;;;;;;28.47;61.79;100799.97;5041249;28;20060;-69
2023/08/16 09:38:09;;;;;;;3.70;3.00;;;;;;;28.56;61.63;100803.00;5037194;28;20057;-69
2023/08/16 09:40:35;;;;;;;4.50;3.40;;;;;;;28.60;61.74;100804.09;5041669;28;20397;-69
2023/08/16 09:43:01;;;;;;;3.55;3.25;;;;;;;28.52;61.89;100797.31;5047149;28;20021;-69
2023/08/16 09:45:34;;;;;;;4.53;3.72;;;;;;;28.51;62.46;100794.91;5033033;28;20025;-70
2023/08/16 09:48:00;;;;;;;4.18;2.90;;;;;;;28.59;61.27;100799.81;5037089;28;20037;-69
2023/08/16 09:50:32;;;;;;;5.93;3.28;;;;;;;28.59;60.09;100797.94;5045310;28;20025;-69
2023/08/16 09:52:58;;;;;;;4.22;3.15;;;;;;;28.32;59.89;100792.63;5046095;28;20116;-69
2023/08/16 09:55:30;;;;;;;5.47;3.13;;;;;;;28.25;59.51;100797.38;5034179;28;20041;-69
2023/08/16 09:57:59;;;;;;;5.22;3.50;;;;;;;28.35;59.93;100794.78;5034250;28;20026;-69
2023/08/16 10:00:27;;;;;;;4.07;3.78;;;;;;;28.44;61.12;100794.31;5032363;28;20464;-69
2023/08/16 10:02:53;;;;;;;4.10;3.15;;;;;;;28.36;61.52;100798.25;5037756;28;20112;-69
2023/08/16 10:05:20;;;;;;;4.70;3.58;;;;;;;28.35;61.19;100792.13;5038477;28;20088;-69
2023/08/16 10:07:47;;;;;;;4.75;3.15;;;;;;;28.45;61.55;100791.38;5034822;28;20048;-69
2023/08/16 10:10:13;;;;;;;3.65;3.35;;;;;;;28.66;61.00;100782.44;5030920;28;20036;-70
2023/08/16 10:12:39;;;;;;;4.22;3.85;;;;;;;28.68;61.21;100779.50;5041354;28;20029;-69
2023/08/16 10:15:05;;;;;;;3.90;3.50;;;;;;;28.51;61.31;100776.16;5036178;28;20044;-69
2023/08/16 10:17:32;;;;;;;3.42;3.22;;;;;;;28.35;61.27;100781.41;5038728;28;20040;-69
2023/08/16 10:20:07;;;;;;;7.25;3.35;;;;;;;28.40;61.69;100768.00;5037244;28;20025;-69
2023/08/16 10:22:38;;;;;;;4.40;4.03;;;;;;;28.58;60.48;100768.69;5039821;28;20040;-69
2023/08/16 10:25:16;;;;;;;4.47;4.07;;;;;;;28.81;60.60;100764.84;5036875;28;20092;-69
2023/08/16 10:27:45;;;;;;;3.65;3.35;;;;;;;28.92;60.14;100753.13;5046574;28;20073;-69
2023/08/16 10:30:20;;;;;;;3.90;3.58;;;;;;;28.82;59.27;100758.47;5038748;28;20033;-69
2023/08/16 10:32:47;;;;;;;3.63;3.33;;;;;;;28.72;60.44;100751.13;5032929;28;20040;-69
2023/08/16 10:35:13;;;;;;;4.50;3.00;;;;;;;28.64;61.19;100749.72;5038937;28;20102;-69
2023/08/16 10:37:39;;;;;;;3.80;3.35;;;;;;;28.75;61.22;100753.28;5041384;28;20633;-69
2023/08/16 10:40:15;;;;;;;4.78;3.47;;;;;;;29.03;58.75;100752.13;5045509;28;20167;-69
2023/08/16 10:42:58;;;;;;;4.80;3.30;;;;;;;29.00;58.62;100749.97;5044409;28;20082;-69
2023/08/16 10:45:36;;;;;;;4.22;3.17;;;;;;;29.02;58.73;100753.22;5042409;28;20059;-72
2023/08/16 10:48:10;;;;;;;3.80;3.22;;;;;;;29.03;58.33;100749.47;5044006;28;20119;-71
2023/08/16 10:50:36;;;;;;;4.57;2.90;;;;;;;28.96;59.07;100747.00;5046841;28;20037;-72
2023/08/16 10:53:02;;;;;;;4.40;3.85;;;;;;;28.96;59.50;100749.69;5046981;28;20033;-72
2023/08/16 10:55:27;;;;;;;4.00;3.20;;;;;;;28.96;59.97;100740.84;5050488;28;20054;-72
2023/08/16 10:57:54;;;;;;;5.22;3.10;;;;;;;28.85;61.30;100736.47;5042306;28;20108;-72
2023/08/16 11:00:28;;;;;;;4.28;3.80;;;;;;;28.97;60.88;100739.75;5049294;28;20567;-72
2023/08/16 11:02:54;;;;;;;3.78;3.33;;;;;;;29.15;60.38;100752.75;5052489;28;20032;-72
2023/08/16 11:05:21;;;;;;;5.53;3.20;;;;;;;29.18;59.71;100746.88;5053122;28;20052;-73
2023/08/16 11:07:47;;;;;;;5.90;3.20;;;;;;;29.15;58.82;100739.34;5044547;28;20049;-72
2023/08/16 11:10:13;;;;;;;5.68;3.47;;;;;;;29.14;59.63;100734.22;5042009;28;20076;-72
2023/08/16 11:12:39;;;;;;;3.78;2.65;;;;;;;29.32;58.09;100736.44;5040630;28;20119;-72
2023/08/16 11:15:05;;;;;;;5.05;3.28;;;;;;;29.32;57.41;100737.25;5046134;28;20113;-72
2023/08/16 11:17:32;;;;;;;4.22;3.83;;;;;;;29.42;57.74;100733.84;5041910;28;20112;-72
2023/08/16 11:20:00;;;;;;;3.25;2.95;;;;;;;29.55;57.10;100735.22;5039988;28;20036;-73
2023/08/16 11:22:26;;;;;;;3.42;3.13;;;;;;;29.63;57.81;100732.03;5037451;28;20191;-72